sensor_id;sensor_type;location;lat;lon;timestamp;P1;durP1;ratioP1;P2;durP2;ratioP2
68942;SDS011;60852;52.190;4.422;2023-03-14T00:01:55;11.19;;;6.84;;
68942;SDS011;60852;52.190;4.422;2023-03-14T00:04:20;12.43;;;7.57;;
68942;SDS011;60852;52.190;4.422;2023-03-14T00:06:46;12.18;;;7.36;;
68942;SDS011;60852;52.190;4.422;2023-03-14T00:09:12;11.33;;;6.81;;
68942;SDS011;60852;52.190;4.422;2023-03-14T00:11:38;10.89;;;6.67;;
68942;SDS011;60852;52.190;4.422;2023-03-14T00:14:04;10.86;;;6.68;;
68942;SDS011;60852;52.190;4.422;2023-03-14T00:16:29;11.48;;;7.05;;
68942;SDS011;60852;52.190;4.422;2023-03-14T00:18:55;10.32;;;6.49;;
68942;SDS011;60852;52.190;4.422;2023-03-14T00:21:20;11.55;;;7.20;;
68942;SDS011;60852;52.190;4.422;2023-03-14T00:23:46;12.43;;;7.75;;
68942;SDS011;60852;52.190;4.422;2023-03-14T00:26:12;11.71;;;7.35;;
68942;SDS011;60852;52.190;4.422;2023-03-14T00:28:43;11.62;;;7.27;;
68942;SDS011;60852;52.190;4.422;2023-03-14T00:31:10;11.38;;;7.13;;
68942;SDS011;60852;52.190;4.422;2023-03-14T00:33:38;12.42;;;7.73;;
68942;SDS011;60852;52.190;4.422;2023-03-14T00:36:08;11.38;;;7.10;;
68942;SDS011;60852;52.190;4.422;2023-03-14T00:38:36;11.51;;;7.21;;
68942;SDS011;60852;52.190;4.422;2023-03-14T00:41:06;12.98;;;8.09;;
68942;SDS011;60852;52.190;4.422;2023-03-14T00:43:34;13.57;;;8.34;;
68942;SDS011;60852;52.190;4.422;2023-03-14T00:46:00;15.26;;;9.05;;
68942;SDS011;60852;52.190;4.422;2023-03-14T00:48:26;15.63;;;9.16;;
68942;SDS011;60852;52.190;4.422;2023-03-14T00:50:52;17.07;;;9.97;;
68942;SDS011;60852;52.190;4.422;2023-03-14T00:53:18;16.22;;;9.58;;
68942;SDS011;60852;52.190;4.422;2023-03-14T00:55:43;16.73;;;9.99;;
68942;SDS011;60852;52.190;4.422;2023-03-14T00:58:10;18.00;;;10.72;;
68942;SDS011;60852;52.190;4.422;2023-03-14T01:00:37;17.31;;;10.42;;
68942;SDS011;60852;52.190;4.422;2023-03-14T01:03:03;17.67;;;10.51;;
68942;SDS011;60852;52.190;4.422;2023-03-14T01:05:29;19.63;;;11.59;;
68942;SDS011;60852;52.190;4.422;2023-03-14T01:07:55;20.70;;;12.13;;
68942;SDS011;60852;52.190;4.422;2023-03-14T01:10:21;19.33;;;11.37;;
68942;SDS011;60852;52.190;4.422;2023-03-14T01:12:47;17.97;;;10.77;;
68942;SDS011;60852;52.190;4.422;2023-03-14T01:15:13;18.10;;;10.85;;
68942;SDS011;60852;52.190;4.422;2023-03-14T01:17:39;17.53;;;10.42;;
68942;SDS011;60852;52.190;4.422;2023-03-14T01:20:05;19.43;;;11.40;;
68942;SDS011;60852;52.190;4.422;2023-03-14T01:22:34;16.89;;;10.14;;
68942;SDS011;60852;52.190;4.422;2023-03-14T01:25:01;17.12;;;10.34;;
68942;SDS011;60852;52.190;4.422;2023-03-14T01:27:26;15.91;;;9.70;;
68942;SDS011;60852;52.190;4.422;2023-03-14T01:29:52;14.87;;;9.18;;
68942;SDS011;60852;52.190;4.422;2023-03-14T01:32:17;15.04;;;9.19;;
68942;SDS011;60852;52.190;4.422;2023-03-14T01:34:43;16.56;;;10.01;;
68942;SDS011;60852;52.190;4.422;2023-03-14T01:37:08;15.77;;;9.53;;
68942;SDS011;60852;52.190;4.422;2023-03-14T01:39:33;16.01;;;9.63;;
68942;SDS011;60852;52.190;4.422;2023-03-14T01:42:00;15.16;;;9.12;;
68942;SDS011;60852;52.190;4.422;2023-03-14T01:44:25;16.04;;;9.64;;
68942;SDS011;60852;52.190;4.422;2023-03-14T01:46:51;15.45;;;9.39;;
68942;SDS011;60852;52.190;4.422;2023-03-14T01:51:53;15.05;;;9.08;;
68942;SDS011;60852;52.190;4.422;2023-03-14T01:54:35;14.42;;;8.69;;
68942;SDS011;60852;52.190;4.422;2023-03-14T01:59:38;13.99;;;8.45;;
68942;SDS011;60852;52.190;4.422;2023-03-14T02:02:07;12.85;;;7.87;;
68942;SDS011;60852;52.190;4.422;2023-03-14T02:04:36;12.56;;;7.69;;
68942;SDS011;60852;52.190;4.422;2023-03-14T02:07:09;12.86;;;7.92;;
68942;SDS011;60852;52.190;4.422;2023-03-14T02:09:40;12.93;;;7.82;;
68942;SDS011;60852;52.190;4.422;2023-03-14T02:12:11;13.17;;;7.90;;
68942;SDS011;60852;52.190;4.422;2023-03-14T02:14:40;12.19;;;7.45;;
68942;SDS011;60852;52.190;4.422;2023-03-14T02:17:07;10.63;;;6.59;;
68942;SDS011;60852;52.190;4.422;2023-03-14T02:19:43;12.39;;;7.62;;
68942;SDS011;60852;52.190;4.422;2023-03-14T02:22:24;11.65;;;7.14;;
68942;SDS011;60852;52.190;4.422;2023-03-14T02:27:37;10.64;;;6.59;;
68942;SDS011;60852;52.190;4.422;2023-03-14T02:30:08;11.28;;;7.05;;
68942;SDS011;60852;52.190;4.422;2023-03-14T02:32:44;11.23;;;6.89;;
68942;SDS011;60852;52.190;4.422;2023-03-14T02:35:14;10.81;;;6.68;;
68942;SDS011;60852;52.190;4.422;2023-03-14T02:37:47;10.49;;;6.53;;
68942;SDS011;60852;52.190;4.422;2023-03-14T02:40:21;9.98;;;6.19;;
68942;SDS011;60852;52.190;4.422;2023-03-14T02:42:47;9.37;;;5.79;;
68942;SDS011;60852;52.190;4.422;2023-03-14T02:47:44;10.66;;;6.62;;
68942;SDS011;60852;52.190;4.422;2023-03-14T02:50:25;9.27;;;5.83;;
68942;SDS011;60852;52.190;4.422;2023-03-14T02:52:55;9.85;;;6.29;;
68942;SDS011;60852;52.190;4.422;2023-03-14T02:55:21;8.82;;;5.83;;
68942;SDS011;60852;52.190;4.422;2023-03-14T02:57:48;8.94;;;6.19;;
68942;SDS011;60852;52.190;4.422;2023-03-14T03:00:14;8.20;;;5.89;;
68942;SDS011;60852;52.190;4.422;2023-03-14T03:02:40;7.27;;;5.39;;
68942;SDS011;60852;52.190;4.422;2023-03-14T03:05:05;7.45;;;5.53;;
68942;SDS011;60852;52.190;4.422;2023-03-14T03:07:31;7.30;;;5.34;;
68942;SDS011;60852;52.190;4.422;2023-03-14T03:09:56;7.89;;;5.74;;
68942;SDS011;60852;52.190;4.422;2023-03-14T03:12:22;7.72;;;5.74;;
68942;SDS011;60852;52.190;4.422;2023-03-14T03:14:47;6.20;;;4.84;;
68942;SDS011;60852;52.190;4.422;2023-03-14T03:17:12;5.88;;;4.65;;
68942;SDS011;60852;52.190;4.422;2023-03-14T03:19:38;6.41;;;4.92;;
68942;SDS011;60852;52.190;4.422;2023-03-14T03:22:03;7.09;;;5.42;;
68942;SDS011;60852;52.190;4.422;2023-03-14T03:24:29;7.28;;;5.56;;
68942;SDS011;60852;52.190;4.422;2023-03-14T03:26:54;6.61;;;5.14;;
68942;SDS011;60852;52.190;4.422;2023-03-14T03:29:20;7.23;;;5.74;;
68942;SDS011;60852;52.190;4.422;2023-03-14T03:31:45;6.72;;;5.34;;
68942;SDS011;60852;52.190;4.422;2023-03-14T03:34:11;6.57;;;5.33;;
68942;SDS011;60852;52.190;4.422;2023-03-14T03:36:38;6.84;;;5.56;;
68942;SDS011;60852;52.190;4.422;2023-03-14T03:39:04;6.39;;;5.26;;
68942;SDS011;60852;52.190;4.422;2023-03-14T03:41:30;7.15;;;5.85;;
68942;SDS011;60852;52.190;4.422;2023-03-14T03:43:56;7.07;;;5.85;;
68942;SDS011;60852;52.190;4.422;2023-03-14T03:46:22;6.77;;;5.67;;
68942;SDS011;60852;52.190;4.422;2023-03-14T03:48:47;6.73;;;5.73;;
68942;SDS011;60852;52.190;4.422;2023-03-14T03:51:14;6.74;;;5.88;;
68942;SDS011;60852;52.190;4.422;2023-03-14T03:53:41;6.83;;;6.10;;
68942;SDS011;60852;52.190;4.422;2023-03-14T03:56:07;6.56;;;5.93;;
68942;SDS011;60852;52.190;4.422;2023-03-14T03:58:33;6.65;;;6.10;;
68942;SDS011;60852;52.190;4.422;2023-03-14T04:00:58;6.97;;;6.40;;
68942;SDS011;60852;52.190;4.422;2023-03-14T04:03:24;6.47;;;6.08;;
68942;SDS011;60852;52.190;4.422;2023-03-14T04:05:57;6.26;;;5.93;;
68942;SDS011;60852;52.190;4.422;2023-03-14T04:08:26;6.57;;;6.07;;
68942;SDS011;60852;52.190;4.422;2023-03-14T04:10:56;6.42;;;6.14;;
68942;SDS011;60852;52.190;4.422;2023-03-14T04:13:22;6.80;;;6.51;;
68942;SDS011;60852;52.190;4.422;2023-03-14T04:15:48;6.65;;;6.26;;
68942;SDS011;60852;52.190;4.422;2023-03-14T04:18:14;6.42;;;6.04;;
68942;SDS011;60852;52.190;4.422;2023-03-14T04:20:40;5.92;;;5.52;;
68942;SDS011;60852;52.190;4.422;2023-03-14T04:23:05;5.31;;;4.90;;
68942;SDS011;60852;52.190;4.422;2023-03-14T04:25:31;4.87;;;4.43;;
68942;SDS011;60852;52.190;4.422;2023-03-14T04:27:56;5.42;;;4.78;;
68942;SDS011;60852;52.190;4.422;2023-03-14T04:30:21;5.79;;;5.00;;
68942;SDS011;60852;52.190;4.422;2023-03-14T04:32:47;5.74;;;4.96;;
68942;SDS011;60852;52.190;4.422;2023-03-14T04:35:12;5.01;;;4.40;;
68942;SDS011;60852;52.190;4.422;2023-03-14T04:37:39;5.55;;;4.84;;
68942;SDS011;60852;52.190;4.422;2023-03-14T04:40:07;5.36;;;4.73;;
68942;SDS011;60852;52.190;4.422;2023-03-14T04:42:35;5.44;;;4.85;;
68942;SDS011;60852;52.190;4.422;2023-03-14T04:45:00;5.08;;;4.59;;
68942;SDS011;60852;52.190;4.422;2023-03-14T04:47:26;4.96;;;4.55;;
68942;SDS011;60852;52.190;4.422;2023-03-14T04:49:52;4.99;;;4.61;;
68942;SDS011;60852;52.190;4.422;2023-03-14T04:52:17;5.20;;;4.89;;
68942;SDS011;60852;52.190;4.422;2023-03-14T04:54:42;4.99;;;4.76;;
68942;SDS011;60852;52.190;4.422;2023-03-14T04:57:08;4.52;;;4.34;;
68942;SDS011;60852;52.190;4.422;2023-03-14T04:59:33;4.76;;;4.57;;
68942;SDS011;60852;52.190;4.422;2023-03-14T05:01:59;4.56;;;4.39;;
68942;SDS011;60852;52.190;4.422;2023-03-14T05:04:24;3.97;;;3.83;;
68942;SDS011;60852;52.190;4.422;2023-03-14T05:06:50;4.31;;;4.13;;
68942;SDS011;60852;52.190;4.422;2023-03-14T05:09:15;4.42;;;4.15;;
68942;SDS011;60852;52.190;4.422;2023-03-14T05:11:41;5.32;;;4.78;;
68942;SDS011;60852;52.190;4.422;2023-03-14T05:14:06;5.80;;;4.90;;
68942;SDS011;60852;52.190;4.422;2023-03-14T05:16:32;7.18;;;5.51;;
68942;SDS011;60852;52.190;4.422;2023-03-14T05:18:57;8.88;;;6.41;;
68942;SDS011;60852;52.190;4.422;2023-03-14T05:21:23;9.81;;;6.56;;
68942;SDS011;60852;52.190;4.422;2023-03-14T05:23:48;8.85;;;5.57;;
68942;SDS011;60852;52.190;4.422;2023-03-14T05:26:14;8.60;;;5.27;;
68942;SDS011;60852;52.190;4.422;2023-03-14T05:28:41;8.78;;;5.38;;
68942;SDS011;60852;52.190;4.422;2023-03-14T05:31:08;9.77;;;5.93;;
68942;SDS011;60852;52.190;4.422;2023-03-14T05:33:34;9.36;;;5.63;;
68942;SDS011;60852;52.190;4.422;2023-03-14T05:35:59;9.74;;;5.82;;
68942;SDS011;60852;52.190;4.422;2023-03-14T05:38:25;9.78;;;5.83;;
68942;SDS011;60852;52.190;4.422;2023-03-14T05:40:50;10.20;;;6.08;;
68942;SDS011;60852;52.190;4.422;2023-03-14T05:43:16;10.15;;;6.00;;
68942;SDS011;60852;52.190;4.422;2023-03-14T05:45:41;9.41;;;5.55;;
68942;SDS011;60852;52.190;4.422;2023-03-14T05:48:07;9.16;;;5.42;;
68942;SDS011;60852;52.190;4.422;2023-03-14T05:50:33;10.20;;;5.96;;
68942;SDS011;60852;52.190;4.422;2023-03-14T05:52:58;8.79;;;5.13;;
68942;SDS011;60852;52.190;4.422;2023-03-14T05:55:24;10.08;;;5.88;;
68942;SDS011;60852;52.190;4.422;2023-03-14T05:57:49;9.72;;;5.67;;
68942;SDS011;60852;52.190;4.422;2023-03-14T06:00:15;9.05;;;5.28;;
68942;SDS011;60852;52.190;4.422;2023-03-14T06:02:41;9.60;;;5.56;;
68942;SDS011;60852;52.190;4.422;2023-03-14T06:05:07;6.31;;;3.70;;
68942;SDS011;60852;52.190;4.422;2023-03-14T06:07:32;5.76;;;3.42;;
68942;SDS011;60852;52.190;4.422;2023-03-14T06:09:58;5.12;;;3.04;;
68942;SDS011;60852;52.190;4.422;2023-03-14T06:12:24;5.99;;;3.58;;
68942;SDS011;60852;52.190;4.422;2023-03-14T06:14:49;5.26;;;3.20;;
68942;SDS011;60852;52.190;4.422;2023-03-14T06:17:15;5.67;;;3.46;;
68942;SDS011;60852;52.190;4.422;2023-03-14T06:19:40;5.60;;;3.45;;
68942;SDS011;60852;52.190;4.422;2023-03-14T06:22:06;5.91;;;3.62;;
68942;SDS011;60852;52.190;4.422;2023-03-14T06:24:32;6.37;;;3.91;;
68942;SDS011;60852;52.190;4.422;2023-03-14T06:26:57;6.29;;;3.84;;
68942;SDS011;60852;52.190;4.422;2023-03-14T06:29:23;6.85;;;4.14;;
68942;SDS011;60852;52.190;4.422;2023-03-14T06:31:48;8.15;;;5.04;;
68942;SDS011;60852;52.190;4.422;2023-03-14T06:34:14;7.39;;;4.58;;
68942;SDS011;60852;52.190;4.422;2023-03-14T06:36:39;8.50;;;5.16;;
68942;SDS011;60852;52.190;4.422;2023-03-14T06:39:05;7.93;;;4.85;;
68942;SDS011;60852;52.190;4.422;2023-03-14T06:41:30;7.26;;;4.52;;
68942;SDS011;60852;52.190;4.422;2023-03-14T06:43:56;7.59;;;4.74;;
68942;SDS011;60852;52.190;4.422;2023-03-14T06:46:21;8.84;;;5.51;;
68942;SDS011;60852;52.190;4.422;2023-03-14T06:48:47;8.22;;;5.09;;
68942;SDS011;60852;52.190;4.422;2023-03-14T06:51:12;9.45;;;5.88;;
68942;SDS011;60852;52.190;4.422;2023-03-14T06:53:38;8.17;;;5.13;;
68942;SDS011;60852;52.190;4.422;2023-03-14T06:56:03;7.30;;;4.50;;
68942;SDS011;60852;52.190;4.422;2023-03-14T06:58:29;7.30;;;4.43;;
68942;SDS011;60852;52.190;4.422;2023-03-14T07:00:54;8.03;;;4.89;;
68942;SDS011;60852;52.190;4.422;2023-03-14T07:03:21;6.68;;;4.11;;
68942;SDS011;60852;52.190;4.422;2023-03-14T07:05:47;5.77;;;3.61;;
68942;SDS011;60852;52.190;4.422;2023-03-14T07:08:13;6.72;;;4.24;;
68942;SDS011;60852;52.190;4.422;2023-03-14T07:10:39;6.71;;;4.18;;
68942;SDS011;60852;52.190;4.422;2023-03-14T07:13:04;5.94;;;3.68;;
68942;SDS011;60852;52.190;4.422;2023-03-14T07:15:30;5.57;;;3.46;;
68942;SDS011;60852;52.190;4.422;2023-03-14T07:17:56;4.72;;;2.94;;
68942;SDS011;60852;52.190;4.422;2023-03-14T07:20:21;5.74;;;3.50;;
68942;SDS011;60852;52.190;4.422;2023-03-14T07:22:49;6.62;;;3.98;;
68942;SDS011;60852;52.190;4.422;2023-03-14T07:25:15;8.25;;;4.92;;
68942;SDS011;60852;52.190;4.422;2023-03-14T07:27:45;9.12;;;5.38;;
68942;SDS011;60852;52.190;4.422;2023-03-14T07:30:12;9.29;;;5.49;;
68942;SDS011;60852;52.190;4.422;2023-03-14T07:32:38;8.82;;;5.22;;
68942;SDS011;60852;52.190;4.422;2023-03-14T07:35:04;10.09;;;5.95;;
68942;SDS011;60852;52.190;4.422;2023-03-14T07:37:30;9.09;;;5.42;;
68942;SDS011;60852;52.190;4.422;2023-03-14T07:39:55;7.54;;;4.50;;
68942;SDS011;60852;52.190;4.422;2023-03-14T07:42:21;7.70;;;4.61;;
68942;SDS011;60852;52.190;4.422;2023-03-14T07:44:46;8.89;;;5.33;;
68942;SDS011;60852;52.190;4.422;2023-03-14T07:47:12;8.21;;;4.95;;
68942;SDS011;60852;52.190;4.422;2023-03-14T07:49:37;8.64;;;5.16;;
68942;SDS011;60852;52.190;4.422;2023-03-14T07:52:03;8.59;;;5.04;;
68942;SDS011;60852;52.190;4.422;2023-03-14T07:54:28;9.08;;;5.35;;
68942;SDS011;60852;52.190;4.422;2023-03-14T07:56:54;9.34;;;5.53;;
68942;SDS011;60852;52.190;4.422;2023-03-14T07:59:19;8.31;;;4.98;;
68942;SDS011;60852;52.190;4.422;2023-03-14T08:01:45;8.17;;;4.94;;
68942;SDS011;60852;52.190;4.422;2023-03-14T08:04:11;7.93;;;4.77;;
68942;SDS011;60852;52.190;4.422;2023-03-14T08:06:36;7.83;;;4.70;;
68942;SDS011;60852;52.190;4.422;2023-03-14T08:09:02;7.32;;;4.41;;
68942;SDS011;60852;52.190;4.422;2023-03-14T08:11:29;8.17;;;4.91;;
68942;SDS011;60852;52.190;4.422;2023-03-14T08:13:54;6.30;;;3.85;;
68942;SDS011;60852;52.190;4.422;2023-03-14T08:16:20;5.77;;;3.54;;
68942;SDS011;60852;52.190;4.422;2023-03-14T08:18:46;6.08;;;3.75;;
68942;SDS011;60852;52.190;4.422;2023-03-14T08:21:12;6.80;;;4.28;;
68942;SDS011;60852;52.190;4.422;2023-03-14T08:23:38;6.66;;;4.23;;
68942;SDS011;60852;52.190;4.422;2023-03-14T08:26:04;7.33;;;4.57;;
68942;SDS011;60852;52.190;4.422;2023-03-14T08:28:30;7.26;;;4.47;;
68942;SDS011;60852;52.190;4.422;2023-03-14T08:30:57;8.04;;;4.93;;
68942;SDS011;60852;52.190;4.422;2023-03-14T08:33:23;9.54;;;5.79;;
68942;SDS011;60852;52.190;4.422;2023-03-14T08:35:54;9.86;;;5.91;;
68942;SDS011;60852;52.190;4.422;2023-03-14T08:38:21;11.64;;;6.87;;
68942;SDS011;60852;52.190;4.422;2023-03-14T08:40:47;13.40;;;7.88;;
68942;SDS011;60852;52.190;4.422;2023-03-14T08:43:14;12.81;;;7.59;;
68942;SDS011;60852;52.190;4.422;2023-03-14T08:45:39;12.68;;;7.64;;
68942;SDS011;60852;52.190;4.422;2023-03-14T08:48:05;13.07;;;7.94;;
68942;SDS011;60852;52.190;4.422;2023-03-14T08:50:30;11.70;;;7.12;;
68942;SDS011;60852;52.190;4.422;2023-03-14T08:52:56;12.21;;;7.44;;
68942;SDS011;60852;52.190;4.422;2023-03-14T08:55:25;13.48;;;8.05;;
68942;SDS011;60852;52.190;4.422;2023-03-14T08:57:52;13.11;;;7.89;;
68942;SDS011;60852;52.190;4.422;2023-03-14T09:00:18;14.44;;;8.66;;
68942;SDS011;60852;52.190;4.422;2023-03-14T09:02:44;14.34;;;8.46;;
68942;SDS011;60852;52.190;4.422;2023-03-14T09:05:10;14.08;;;8.36;;
68942;SDS011;60852;52.190;4.422;2023-03-14T09:07:37;14.86;;;8.93;;
68942;SDS011;60852;52.190;4.422;2023-03-14T09:10:03;14.90;;;8.90;;
68942;SDS011;60852;52.190;4.422;2023-03-14T09:12:29;14.49;;;8.65;;
68942;SDS011;60852;52.190;4.422;2023-03-14T09:14:55;15.26;;;9.09;;
68942;SDS011;60852;52.190;4.422;2023-03-14T09:17:21;13.72;;;8.21;;
68942;SDS011;60852;52.190;4.422;2023-03-14T09:19:46;14.16;;;8.51;;
68942;SDS011;60852;52.190;4.422;2023-03-14T09:22:12;12.88;;;7.75;;
68942;SDS011;60852;52.190;4.422;2023-03-14T09:24:47;14.39;;;8.30;;
68942;SDS011;60852;52.190;4.422;2023-03-14T09:27:12;15.18;;;8.93;;
68942;SDS011;60852;52.190;4.422;2023-03-14T09:29:38;15.22;;;9.40;;
68942;SDS011;60852;52.190;4.422;2023-03-14T09:32:03;14.44;;;8.86;;
68942;SDS011;60852;52.190;4.422;2023-03-14T09:34:29;15.10;;;9.20;;
68942;SDS011;60852;52.190;4.422;2023-03-14T09:36:54;14.31;;;8.76;;
68942;SDS011;60852;52.190;4.422;2023-03-14T09:39:20;16.31;;;9.85;;
68942;SDS011;60852;52.190;4.422;2023-03-14T09:41:49;15.89;;;9.42;;
68942;SDS011;60852;52.190;4.422;2023-03-14T09:47:00;16.70;;;9.91;;
68942;SDS011;60852;52.190;4.422;2023-03-14T09:49:31;18.58;;;10.98;;
68942;SDS011;60852;52.190;4.422;2023-03-14T09:52:01;17.21;;;10.28;;
68942;SDS011;60852;52.190;4.422;2023-03-14T09:54:45;17.44;;;10.55;;
68942;SDS011;60852;52.190;4.422;2023-03-14T09:57:19;16.35;;;9.94;;
68942;SDS011;60852;52.190;4.422;2023-03-14T09:59:49;15.70;;;9.69;;
68942;SDS011;60852;52.190;4.422;2023-03-14T10:02:22;16.84;;;10.18;;
68942;SDS011;60852;52.190;4.422;2023-03-14T10:04:51;17.63;;;10.54;;
68942;SDS011;60852;52.190;4.422;2023-03-14T10:07:23;18.47;;;10.83;;
68942;SDS011;60852;52.190;4.422;2023-03-14T10:09:53;16.88;;;9.97;;
68942;SDS011;60852;52.190;4.422;2023-03-14T10:12:20;18.48;;;10.80;;
68942;SDS011;60852;52.190;4.422;2023-03-14T10:14:56;18.15;;;10.67;;
68942;SDS011;60852;52.190;4.422;2023-03-14T10:17:22;17.64;;;10.47;;
68942;SDS011;60852;52.190;4.422;2023-03-14T10:19:52;16.64;;;9.94;;
68942;SDS011;60852;52.190;4.422;2023-03-14T10:22:19;17.66;;;10.42;;
68942;SDS011;60852;52.190;4.422;2023-03-14T10:24:52;16.36;;;9.61;;
68942;SDS011;60852;52.190;4.422;2023-03-14T10:27:20;15.85;;;9.29;;
68942;SDS011;60852;52.190;4.422;2023-03-14T10:29:52;16.96;;;10.01;;
68942;SDS011;60852;52.190;4.422;2023-03-14T10:32:20;16.92;;;10.04;;
68942;SDS011;60852;52.190;4.422;2023-03-14T10:34:46;16.58;;;9.83;;
68942;SDS011;60852;52.190;4.422;2023-03-14T10:37:31;15.38;;;9.17;;
68942;SDS011;60852;52.190;4.422;2023-03-14T10:39:58;13.95;;;8.32;;
68942;SDS011;60852;52.190;4.422;2023-03-14T10:42:31;14.30;;;8.46;;
68942;SDS011;60852;52.190;4.422;2023-03-14T10:45:00;14.74;;;8.71;;
68942;SDS011;60852;52.190;4.422;2023-03-14T10:47:34;13.39;;;8.13;;
68942;SDS011;60852;52.190;4.422;2023-03-14T10:52:51;12.24;;;7.45;;
68942;SDS011;60852;52.190;4.422;2023-03-14T10:55:18;11.60;;;6.96;;
68942;SDS011;60852;52.190;4.422;2023-03-14T10:57:43;13.08;;;7.85;;
68942;SDS011;60852;52.190;4.422;2023-03-14T11:00:19;13.22;;;7.84;;
68942;SDS011;60852;52.190;4.422;2023-03-14T11:08:01;11.21;;;6.70;;
68942;SDS011;60852;52.190;4.422;2023-03-14T11:10:35;10.48;;;6.26;;
68942;SDS011;60852;52.190;4.422;2023-03-14T11:18:41;9.16;;;5.78;;
68942;SDS011;60852;52.190;4.422;2023-03-14T11:35:17;11.06;;;6.90;;
68942;SDS011;60852;52.190;4.422;2023-03-14T11:38:05;10.89;;;6.92;;
68942;SDS011;60852;52.190;4.422;2023-03-14T11:40:39;10.14;;;6.26;;
68942;SDS011;60852;52.190;4.422;2023-03-14T11:45:41;9.40;;;5.85;;
68942;SDS011;60852;52.190;4.422;2023-03-14T11:50:43;8.85;;;5.51;;
68942;SDS011;60852;52.190;4.422;2023-03-14T11:53:14;10.75;;;6.82;;
68942;SDS011;60852;52.190;4.422;2023-03-14T11:55:47;10.09;;;6.43;;
68942;SDS011;60852;52.190;4.422;2023-03-14T11:58:49;9.31;;;5.89;;
68942;SDS011;60852;52.190;4.422;2023-03-14T12:01:10;9.46;;;5.85;;
68942;SDS011;60852;52.190;4.422;2023-03-14T12:03:42;9.53;;;5.85;;
68942;SDS011;60852;52.190;4.422;2023-03-14T12:07:06;8.53;;;5.33;;
68942;SDS011;60852;52.190;4.422;2023-03-14T12:09:28;10.43;;;6.63;;
68942;SDS011;60852;52.190;4.422;2023-03-14T12:11:56;9.84;;;6.23;;
68942;SDS011;60852;52.190;4.422;2023-03-14T12:14:30;9.71;;;6.45;;
68942;SDS011;60852;52.190;4.422;2023-03-14T12:19:45;7.54;;;5.50;;
68942;SDS011;60852;52.190;4.422;2023-03-14T12:22:30;5.66;;;4.26;;
68942;SDS011;60852;52.190;4.422;2023-03-14T12:25:02;5.26;;;3.77;;
68942;SDS011;60852;52.190;4.422;2023-03-14T12:27:38;6.16;;;4.28;;
68942;SDS011;60852;52.190;4.422;2023-03-14T12:30:26;6.27;;;4.43;;
68942;SDS011;60852;52.190;4.422;2023-03-14T12:35:42;4.83;;;3.47;;
68942;SDS011;60852;52.190;4.422;2023-03-14T12:38:18;5.41;;;3.77;;
68942;SDS011;60852;52.190;4.422;2023-03-14T12:43:44;5.34;;;3.74;;
68942;SDS011;60852;52.190;4.422;2023-03-14T12:51:20;5.98;;;4.07;;
68942;SDS011;60852;52.190;4.422;2023-03-14T12:59:57;6.40;;;4.16;;
68942;SDS011;60852;52.190;4.422;2023-03-14T13:02:25;6.20;;;3.99;;
68942;SDS011;60852;52.190;4.422;2023-03-14T13:05:09;6.43;;;4.14;;
68942;SDS011;60852;52.190;4.422;2023-03-14T13:15:39;6.17;;;4.05;;
68942;SDS011;60852;52.190;4.422;2023-03-14T13:18:12;7.15;;;4.85;;
68942;SDS011;60852;52.190;4.422;2023-03-14T13:20:40;7.72;;;5.17;;
68942;SDS011;60852;52.190;4.422;2023-03-14T13:23:21;7.18;;;4.84;;
68942;SDS011;60852;52.190;4.422;2023-03-14T13:25:49;7.30;;;4.88;;
68942;SDS011;60852;52.190;4.422;2023-03-14T13:28:15;6.56;;;4.34;;
68942;SDS011;60852;52.190;4.422;2023-03-14T13:30:42;6.46;;;4.22;;
68942;SDS011;60852;52.190;4.422;2023-03-14T13:33:12;5.62;;;3.75;;
68942;SDS011;60852;52.190;4.422;2023-03-14T13:35:45;6.48;;;4.34;;
68942;SDS011;60852;52.190;4.422;2023-03-14T13:38:26;6.87;;;4.60;;
68942;SDS011;60852;52.190;4.422;2023-03-14T13:40:54;5.82;;;3.98;;
68942;SDS011;60852;52.190;4.422;2023-03-14T13:43:32;6.14;;;4.22;;
68942;SDS011;60852;52.190;4.422;2023-03-14T13:46:12;6.54;;;4.63;;
68942;SDS011;60852;52.190;4.422;2023-03-14T13:48:43;6.50;;;4.65;;
68942;SDS011;60852;52.190;4.422;2023-03-14T13:51:13;6.27;;;4.38;;
68942;SDS011;60852;52.190;4.422;2023-03-14T13:56:16;5.60;;;4.09;;
68942;SDS011;60852;52.190;4.422;2023-03-14T13:58:43;6.18;;;4.52;;
68942;SDS011;60852;52.190;4.422;2023-03-14T14:04:15;5.61;;;4.29;;
68942;SDS011;60852;52.190;4.422;2023-03-14T14:06:48;6.55;;;4.90;;
68942;SDS011;60852;52.190;4.422;2023-03-14T14:09:21;6.30;;;4.73;;
68942;SDS011;60852;52.190;4.422;2023-03-14T14:11:52;6.55;;;4.58;;
68942;SDS011;60852;52.190;4.422;2023-03-14T14:14:24;10.57;;;7.22;;
68942;SDS011;60852;52.190;4.422;2023-03-14T14:16:57;5.62;;;4.00;;
68942;SDS011;60852;52.190;4.422;2023-03-14T14:19:27;4.95;;;3.48;;
68942;SDS011;60852;52.190;4.422;2023-03-14T14:21:56;5.78;;;3.97;;
68942;SDS011;60852;52.190;4.422;2023-03-14T14:24:23;5.74;;;3.80;;
68942;SDS011;60852;52.190;4.422;2023-03-14T14:26:58;6.28;;;4.14;;
68942;SDS011;60852;52.190;4.422;2023-03-14T14:29:29;5.96;;;3.93;;
68942;SDS011;60852;52.190;4.422;2023-03-14T14:32:08;5.77;;;3.88;;
68942;SDS011;60852;52.190;4.422;2023-03-14T14:34:38;5.75;;;3.87;;
68942;SDS011;60852;52.190;4.422;2023-03-14T14:37:17;6.59;;;4.53;;
68942;SDS011;60852;52.190;4.422;2023-03-14T14:39:45;6.72;;;4.71;;
68942;SDS011;60852;52.190;4.422;2023-03-14T14:42:18;5.75;;;4.04;;
68942;SDS011;60852;52.190;4.422;2023-03-14T14:44:47;5.33;;;3.80;;
68942;SDS011;60852;52.190;4.422;2023-03-14T14:47:18;6.07;;;4.25;;
68942;SDS011;60852;52.190;4.422;2023-03-14T14:49:46;7.33;;;5.01;;
68942;SDS011;60852;52.190;4.422;2023-03-14T14:52:14;6.84;;;4.71;;
68942;SDS011;60852;52.190;4.422;2023-03-14T14:54:59;6.49;;;4.40;;
68942;SDS011;60852;52.190;4.422;2023-03-14T14:57:31;6.12;;;4.16;;
68942;SDS011;60852;52.190;4.422;2023-03-14T15:00:03;7.06;;;4.86;;
68942;SDS011;60852;52.190;4.422;2023-03-14T15:05:16;5.13;;;3.59;;
68942;SDS011;60852;52.190;4.422;2023-03-14T15:07:52;5.37;;;3.63;;
68942;SDS011;60852;52.190;4.422;2023-03-14T15:10:19;6.45;;;4.46;;
68942;SDS011;60852;52.190;4.422;2023-03-14T15:12:47;6.75;;;4.65;;
68942;SDS011;60852;52.190;4.422;2023-03-14T15:15:14;6.29;;;4.28;;
68942;SDS011;60852;52.190;4.422;2023-03-14T15:17:41;5.36;;;3.59;;
68942;SDS011;60852;52.190;4.422;2023-03-14T15:20:10;4.93;;;3.26;;
68942;SDS011;60852;52.190;4.422;2023-03-14T15:22:38;5.61;;;3.66;;
68942;SDS011;60852;52.190;4.422;2023-03-14T15:25:04;5.94;;;3.83;;
68942;SDS011;60852;52.190;4.422;2023-03-14T15:27:31;6.00;;;3.89;;
68942;SDS011;60852;52.190;4.422;2023-03-14T15:29:57;6.73;;;4.36;;
68942;SDS011;60852;52.190;4.422;2023-03-14T15:32:24;7.24;;;4.65;;
68942;SDS011;60852;52.190;4.422;2023-03-14T15:34:52;7.08;;;4.61;;
68942;SDS011;60852;52.190;4.422;2023-03-14T15:37:20;7.53;;;4.90;;
68942;SDS011;60852;52.190;4.422;2023-03-14T15:39:46;8.20;;;5.26;;
68942;SDS011;60852;52.190;4.422;2023-03-14T15:42:12;7.80;;;5.13;;
68942;SDS011;60852;52.190;4.422;2023-03-14T15:44:37;6.91;;;4.70;;
68942;SDS011;60852;52.190;4.422;2023-03-14T15:47:04;6.25;;;4.20;;
68942;SDS011;60852;52.190;4.422;2023-03-14T15:49:31;6.09;;;4.01;;
68942;SDS011;60852;52.190;4.422;2023-03-14T15:51:57;8.25;;;5.51;;
68942;SDS011;60852;52.190;4.422;2023-03-14T15:54:22;8.20;;;5.70;;
68942;SDS011;60852;52.190;4.422;2023-03-14T15:56:48;7.28;;;5.39;;
68942;SDS011;60852;52.190;4.422;2023-03-14T15:59:13;10.76;;;8.70;;
68942;SDS011;60852;52.190;4.422;2023-03-14T16:01:38;6.69;;;5.69;;
68942;SDS011;60852;52.190;4.422;2023-03-14T16:04:04;6.93;;;5.85;;
68942;SDS011;60852;52.190;4.422;2023-03-14T16:06:29;5.88;;;4.79;;
68942;SDS011;60852;52.190;4.422;2023-03-14T16:08:55;5.99;;;4.74;;